createdAt,value
2023-05-10T00:00:40.875Z,991.55
2023-05-10T00:03:07.397Z,982.72
2023-05-10T00:05:33.857Z,975.75
2023-05-10T00:08:00.345Z,956.72
2023-05-10T00:10:26.675Z,974.22
2023-05-10T00:12:53.197Z,967.15
2023-05-10T00:15:19.693Z,976.85
2023-05-10T00:17:46.063Z,972.83
2023-05-10T00:20:12.734Z,974.78
2023-05-10T00:22:39.208Z,971.80
2023-05-10T00:25:07.031Z,948.33
2023-05-10T00:27:33.520Z,972.70
2023-05-10T00:29:59.858Z,984.55
2023-05-10T00:32:26.266Z,1001.42
2023-05-10T00:34:52.924Z,980.30
2023-05-10T00:37:19.257Z,990.85
2023-05-10T00:39:45.683Z,987.10
2023-05-10T00:42:12.024Z,982.00
2023-05-10T00:44:38.415Z,993.45
2023-05-10T00:47:04.884Z,969.75
2023-05-10T00:49:32.176Z,985.55
2023-05-10T00:51:59.018Z,992.25
2023-05-10T00:54:25.583Z,974.65
2023-05-10T00:56:52.612Z,968.08
2023-05-10T00:59:19.809Z,976.58
2023-05-10T01:01:46.789Z,984.78
2023-05-10T01:04:14.427Z,998.05
2023-05-10T01:06:41.948Z,989.28
2023-05-10T01:09:08.559Z,983.15
2023-05-10T01:11:39.438Z,962.65
2023-05-10T01:14:07.010Z,988.05
2023-05-10T01:16:38.021Z,980.00
2023-05-10T01:19:09.351Z,999.90
2023-05-10T01:22:20.079Z,978.38
2023-05-10T01:25:20.916Z,940.50
2023-05-10T01:28:14.834Z,949.60
2023-05-10T01:30:56.401Z,947.47
2023-05-10T01:33:36.588Z,953.40
2023-05-10T01:36:11.879Z,955.88
2023-05-10T01:38:44.694Z,978.72
2023-05-10T01:41:19.347Z,944.67
2023-05-10T01:44:00.802Z,966.55
2023-05-10T01:46:37.990Z,985.67
2023-05-10T01:49:10.536Z,967.55
2023-05-10T01:51:48.447Z,960.53
2023-05-10T01:54:18.327Z,959.75
2023-05-10T01:56:46.508Z,957.75
2023-05-10T01:59:16.334Z,975.35
2023-05-10T02:01:44.107Z,982.15
2023-05-10T02:04:12.123Z,971.55
2023-05-10T02:06:40.327Z,978.10
2023-05-10T02:09:08.544Z,996.45
2023-05-10T02:11:35.549Z,990.05
2023-05-10T02:14:02.695Z,987.40
2023-05-10T02:16:31.815Z,981.00
2023-05-10T02:19:00.533Z,991.35
2023-05-10T02:21:28.138Z,989.30
2023-05-10T02:23:56.292Z,991.10
2023-05-10T02:26:24.655Z,997.67
2023-05-10T02:28:52.774Z,969.00
2023-05-10T02:31:20.628Z,1009.03
2023-05-10T02:33:49.058Z,986.90
2023-05-10T02:36:17.329Z,974.47
2023-05-10T02:38:45.473Z,991.55
2023-05-10T02:41:13.011Z,965.28
2023-05-10T02:43:41.771Z,984.45
2023-05-10T02:46:08.342Z,957.03
2023-05-10T02:48:34.822Z,990.08
2023-05-10T02:51:06.716Z,984.88
2023-05-10T02:53:36.470Z,967.40
2023-05-10T02:56:11.997Z,970.20
2023-05-10T02:58:38.400Z,968.03
2023-05-10T03:01:05.006Z,991.50
2023-05-10T03:03:31.460Z,984.20
2023-05-10T03:05:58.901Z,986.85
2023-05-10T03:08:25.851Z,965.08
2023-05-10T03:11:18.784Z,980.78
2023-05-10T03:13:57.535Z,947.85
2023-05-10T03:16:30.346Z,957.70
2023-05-10T03:19:11.345Z,981.40
2023-05-10T03:21:42.706Z,981.55
2023-05-10T03:24:12.930Z,990.88
2023-05-10T03:26:39.986Z,981.30
2023-05-10T03:29:09.019Z,991.42
2023-05-10T03:31:35.697Z,992.55
2023-05-10T03:34:02.248Z,982.33
2023-05-10T03:36:28.718Z,965.90
2023-05-10T03:38:55.537Z,976.13
2023-05-10T03:41:22.292Z,974.10
2023-05-10T03:43:48.700Z,983.70
2023-05-10T03:46:15.201Z,968.95
2023-05-10T03:48:41.590Z,960.85
2023-05-10T03:51:07.981Z,956.15
2023-05-10T03:53:34.379Z,969.13
2023-05-10T03:56:00.910Z,959.55
2023-05-10T03:58:27.299Z,940.75
2023-05-10T04:00:53.837Z,928.60
2023-05-10T04:03:21.214Z,933.42
2023-05-10T04:05:47.853Z,934.17
2023-05-10T04:08:15.747Z,937.47
2023-05-10T04:10:42.156Z,920.08
2023-05-10T04:13:08.530Z,923.33
2023-05-10T04:15:34.968Z,914.20
2023-05-10T04:18:01.371Z,906.80
2023-05-10T04:20:27.817Z,932.08
2023-05-10T04:22:54.564Z,909.78
2023-05-10T04:25:20.995Z,903.83
2023-05-10T04:27:47.378Z,877.40
2023-05-10T04:30:13.966Z,897.25
2023-05-10T04:32:40.435Z,898.85
2023-05-10T04:35:07.091Z,894.10
2023-05-10T04:37:33.507Z,898.88
2023-05-10T04:40:00.928Z,892.55
2023-05-10T04:42:27.344Z,895.10
2023-05-10T04:44:53.918Z,903.00
2023-05-10T04:47:20.298Z,888.90
2023-05-10T04:49:49.808Z,900.08
2023-05-10T04:52:18.323Z,886.75
2023-05-10T04:54:45.026Z,871.63
2023-05-10T04:57:11.509Z,883.85
2023-05-10T04:59:38.562Z,895.15
2023-05-10T05:02:06.013Z,866.25
2023-05-10T05:04:35.626Z,892.17
2023-05-10T05:07:02.068Z,880.67
2023-05-10T05:09:28.421Z,905.75
2023-05-10T05:11:54.806Z,871.92
2023-05-10T05:14:22.032Z,874.08
2023-05-10T05:16:48.416Z,877.35
2023-05-10T05:19:14.826Z,880.92
2023-05-10T05:21:41.290Z,867.25
2023-05-10T05:24:08.097Z,871.33
2023-05-10T05:26:34.587Z,871.40
2023-05-10T05:29:01.018Z,886.47
2023-05-10T05:31:27.374Z,910.20
2023-05-10T05:33:53.745Z,878.22
2023-05-10T05:36:20.079Z,895.83
2023-05-10T05:38:46.521Z,889.42
2023-05-10T05:41:13.036Z,886.22
2023-05-10T05:43:39.372Z,898.05
2023-05-10T05:46:06.124Z,910.15
2023-05-10T05:48:32.554Z,901.90
2023-05-10T05:50:58.968Z,913.42
2023-05-10T05:53:25.855Z,915.80
2023-05-10T05:55:54.187Z,912.30
2023-05-10T05:58:21.271Z,910.42
2023-05-10T06:00:47.728Z,921.65
2023-05-10T06:03:14.225Z,913.92
2023-05-10T06:05:40.799Z,908.38
2023-05-10T06:08:07.301Z,904.55
2023-05-10T06:10:33.641Z,903.08
2023-05-10T06:13:00.130Z,904.92
2023-05-10T06:15:27.035Z,911.50
2023-05-10T06:17:53.437Z,918.72
2023-05-10T06:20:19.875Z,943.13
2023-05-10T06:22:46.320Z,948.47
2023-05-10T06:25:12.724Z,948.55
2023-05-10T06:27:39.057Z,944.45
2023-05-10T06:30:12.997Z,928.22
2023-05-10T06:32:40.104Z,945.72
2023-05-10T06:35:07.248Z,923.08
2023-05-10T06:37:33.693Z,928.55
2023-05-10T06:40:00.206Z,915.55
2023-05-10T06:42:26.736Z,891.20
2023-05-10T06:44:53.114Z,914.60
2023-05-10T06:47:19.546Z,922.42
2023-05-10T06:49:45.981Z,919.92
2023-05-10T06:52:12.361Z,928.22
2023-05-10T06:54:41.052Z,932.45
2023-05-10T06:57:16.095Z,930.15
2023-05-10T06:59:50.144Z,915.50
2023-05-10T07:02:16.558Z,928.00
2023-05-10T07:04:43.139Z,923.67
2023-05-10T07:07:09.697Z,925.72
2023-05-10T07:09:36.294Z,927.33
2023-05-10T07:12:02.856Z,933.75
2023-05-10T07:14:29.377Z,950.35
2023-05-10T07:16:56.060Z,954.92
2023-05-10T07:19:22.748Z,957.78
2023-05-10T07:21:49.140Z,958.45
2023-05-10T07:24:15.476Z,958.65
2023-05-10T07:26:41.821Z,970.58
2023-05-10T07:29:08.153Z,946.67
2023-05-10T07:31:34.528Z,928.42
2023-05-10T07:34:00.921Z,882.70
2023-05-10T07:36:27.328Z,822.65
2023-05-10T07:38:53.665Z,793.60
2023-05-10T07:41:20.063Z,802.20
2023-05-10T07:43:46.381Z,660.30
2023-05-10T07:46:12.726Z,577.28
2023-05-10T07:48:41.710Z,404.05
2023-05-10T07:51:10.254Z,316.05
2023-05-10T07:53:36.608Z,432.27
2023-05-10T07:56:30.212Z,339.23
2023-05-10T07:58:57.424Z,349.05
2023-05-10T08:01:24.226Z,243.00
2023-05-10T08:03:51.991Z,241.05
2023-05-10T08:06:19.571Z,251.65
2023-05-10T08:08:53.136Z,272.77
2023-05-10T08:11:21.282Z,209.00
2023-05-10T08:13:49.126Z,257.92
2023-05-10T08:16:15.576Z,333.25
2023-05-10T08:18:42.365Z,365.73
2023-05-10T08:21:08.856Z,412.40
2023-05-10T08:23:35.242Z,488.08
2023-05-10T08:26:01.682Z,536.47
2023-05-10T08:28:28.139Z,500.75
2023-05-10T08:30:54.642Z,452.08
2023-05-10T08:33:21.448Z,295.25
2023-05-10T08:35:47.786Z,203.43
2023-05-10T08:38:14.213Z,212.82
2023-05-10T08:40:42.875Z,290.60
2023-05-10T08:43:11.481Z,279.98
2023-05-10T08:45:43.526Z,164.02
2023-05-10T08:48:11.352Z,125.10
2023-05-10T08:50:39.420Z,124.57
2023-05-10T08:53:10.611Z,137.93
2023-05-10T08:55:39.379Z,125.65
2023-05-10T08:58:09.631Z,111.15
2023-05-10T09:00:38.281Z,146.82
2023-05-10T09:03:05.986Z,200.45
2023-05-10T09:05:32.895Z,216.23
2023-05-10T09:08:01.454Z,283.60
2023-05-10T09:10:29.122Z,282.38
2023-05-10T09:12:59.221Z,253.35
2023-05-10T09:15:26.606Z,264.52
2023-05-10T09:17:53.297Z,295.08
2023-05-10T09:20:19.880Z,317.25
2023-05-10T09:22:46.425Z,292.73
2023-05-10T09:25:15.327Z,269.70
2023-05-10T09:27:46.264Z,221.15
2023-05-10T09:30:25.932Z,216.23
2023-05-10T09:32:52.493Z,150.77
2023-05-10T09:35:22.260Z,160.40
2023-05-10T09:37:55.082Z,133.10
2023-05-10T09:40:23.498Z,147.52
2023-05-10T09:43:01.999Z,107.22
2023-05-10T09:45:30.613Z,93.50
2023-05-10T09:47:58.332Z,98.45
2023-05-10T09:50:25.070Z,136.27
2023-05-10T09:52:53.336Z,109.88
2023-05-10T09:55:25.744Z,96.47
2023-05-10T09:58:02.825Z,104.18
2023-05-10T10:00:35.070Z,99.95
2023-05-10T10:03:01.690Z,120.38
2023-05-10T10:05:37.964Z,109.97
2023-05-10T10:08:05.764Z,106.13
2023-05-10T10:10:33.484Z,111.75
2023-05-10T10:13:03.764Z,102.25
2023-05-10T10:15:30.424Z,83.47
2023-05-10T10:17:56.892Z,87.38
2023-05-10T10:20:23.802Z,89.85
2023-05-10T10:22:50.434Z,102.25
2023-05-10T10:25:18.418Z,110.95
2023-05-10T10:27:51.045Z,96.57
2023-05-10T10:30:38.229Z,110.78
2023-05-10T10:33:27.227Z,100.78
2023-05-10T10:35:56.354Z,106.07
2023-05-10T10:38:23.634Z,105.38
2023-05-10T10:41:03.244Z,85.80
2023-05-10T10:43:30.285Z,93.40
2023-05-10T10:46:18.105Z,92.30
2023-05-10T10:49:09.321Z,87.07
2023-05-10T10:52:36.987Z,94.20
2023-05-10T10:55:19.195Z,103.63
2023-05-10T10:57:52.916Z,118.40
2023-05-10T11:00:19.603Z,97.68
2023-05-10T11:02:49.750Z,90.70
2023-05-10T11:05:28.549Z,95.15
2023-05-10T11:07:56.201Z,95.97
2023-05-10T11:10:23.859Z,93.38
2023-05-10T11:12:54.605Z,93.22
2023-05-10T11:15:21.480Z,97.50
2023-05-10T11:17:52.869Z,93.25
2023-05-10T11:20:23.840Z,91.32
2023-05-10T11:22:54.382Z,89.13
2023-05-10T11:25:21.415Z,95.53
2023-05-10T11:27:49.214Z,94.57
2023-05-10T11:30:16.145Z,92.90
2023-05-10T11:32:43.233Z,99.20
2023-05-10T11:35:11.409Z,100.50
2023-05-10T11:37:42.174Z,125.88
2023-05-10T11:40:10.898Z,131.13
2023-05-10T11:42:40.509Z,129.07
2023-05-10T11:45:07.513Z,120.82
2023-05-10T11:47:33.973Z,124.05
2023-05-10T11:50:00.992Z,121.35
2023-05-10T11:52:27.326Z,135.13
2023-05-10T11:54:54.774Z,135.55
2023-05-10T11:57:22.154Z,116.93
2023-05-10T11:59:48.544Z,99.93
2023-05-10T12:02:15.133Z,97.85
2023-05-10T12:04:42.601Z,89.97
2023-05-10T12:07:09.045Z,95.13
2023-05-10T12:09:43.940Z,110.32
2023-05-10T12:12:11.081Z,89.93
2023-05-10T12:14:37.505Z,68.30
2023-05-10T12:17:03.926Z,71.03
2023-05-10T12:19:38.613Z,63.15
2023-05-10T12:22:08.089Z,45.42
2023-05-10T12:24:36.256Z,53.58
2023-05-10T12:27:08.231Z,55.63
2023-05-10T12:29:34.624Z,59.30
2023-05-10T12:32:01.218Z,53.95
2023-05-10T12:34:31.770Z,53.42
2023-05-10T12:36:59.656Z,56.35
2023-05-10T12:39:26.242Z,55.65
2023-05-10T12:41:53.546Z,57.00
2023-05-10T12:44:24.943Z,49.63
2023-05-10T12:46:51.436Z,48.22
2023-05-10T12:49:19.847Z,56.95
2023-05-10T12:51:46.234Z,54.38
2023-05-10T12:54:12.824Z,50.53
2023-05-10T12:56:39.158Z,37.22
2023-05-10T12:59:07.881Z,36.95
2023-05-10T13:01:34.365Z,34.60
2023-05-10T13:04:01.192Z,36.83
2023-05-10T13:06:27.536Z,36.13
2023-05-10T13:08:53.940Z,30.05
2023-05-10T13:11:21.026Z,22.67
2023-05-10T13:13:47.394Z,22.50
2023-05-10T13:16:14.072Z,26.55
2023-05-10T13:18:42.962Z,25.13
2023-05-10T13:21:09.361Z,31.02
2023-05-10T13:23:35.899Z,27.63
2023-05-10T13:26:02.237Z,22.58
2023-05-10T13:28:28.896Z,20.17
2023-05-10T13:30:55.251Z,20.95
2023-05-10T13:33:21.637Z,21.42
2023-05-10T13:35:48.130Z,27.58
2023-05-10T13:38:14.761Z,22.95
2023-05-10T13:40:46.984Z,28.63
2023-05-10T13:43:13.758Z,21.05
2023-05-10T13:45:40.179Z,25.17
2023-05-10T13:48:06.772Z,28.85
2023-05-10T13:50:33.209Z,27.23
2023-05-10T13:52:59.563Z,26.70
2023-05-10T13:55:26.096Z,21.08
2023-05-10T13:57:52.801Z,21.33
2023-05-10T14:00:19.471Z,27.77
2023-05-10T14:02:45.934Z,21.17
2023-05-10T14:05:12.880Z,21.45
2023-05-10T14:07:39.584Z,20.00
2023-05-10T14:10:06.410Z,18.75
2023-05-10T14:12:33.057Z,18.13
2023-05-10T14:14:59.472Z,18.13
2023-05-10T14:17:25.930Z,17.85
2023-05-10T14:19:53.774Z,15.82
2023-05-10T14:22:20.451Z,15.88
2023-05-10T14:24:47.897Z,14.13
2023-05-10T14:27:14.365Z,13.57
2023-05-10T14:29:40.773Z,14.27
2023-05-10T14:32:07.491Z,13.70
2023-05-10T14:34:34.144Z,17.92
2023-05-10T14:37:00.543Z,18.70
2023-05-10T14:39:30.358Z,17.83
2023-05-10T14:41:57.200Z,17.05
2023-05-10T14:44:24.608Z,18.33
2023-05-10T14:46:51.388Z,17.20
2023-05-10T14:49:17.711Z,18.75
2023-05-10T14:51:44.037Z,14.60
2023-05-10T14:54:10.335Z,13.65
2023-05-10T14:56:39.901Z,12.55
2023-05-10T14:59:15.588Z,14.65
2023-05-10T15:01:45.145Z,11.77
2023-05-10T15:04:13.843Z,13.68
2023-05-10T15:06:40.767Z,13.35
2023-05-10T15:09:07.114Z,14.40
2023-05-10T15:11:33.657Z,14.52
2023-05-10T15:14:01.236Z,16.80
2023-05-10T15:16:27.666Z,17.88
2023-05-10T15:18:54.117Z,18.75
2023-05-10T15:21:20.544Z,18.58
2023-05-10T15:23:47.235Z,17.45
2023-05-10T15:26:13.705Z,15.18
2023-05-10T15:28:40.153Z,18.92
2023-05-10T15:31:06.748Z,16.77
2023-05-10T15:33:33.413Z,16.63
2023-05-10T15:35:59.806Z,18.58
2023-05-10T15:38:28.858Z,16.85
2023-05-10T15:40:58.681Z,16.67
2023-05-10T15:43:25.111Z,16.15
2023-05-10T15:45:51.497Z,15.40
2023-05-10T15:48:18.004Z,15.20
2023-05-10T15:50:46.692Z,14.73
2023-05-10T15:53:17.200Z,16.08
2023-05-10T15:55:44.013Z,18.42
2023-05-10T15:58:11.345Z,20.00
2023-05-10T16:00:50.169Z,19.20
2023-05-10T16:03:16.693Z,22.58
2023-05-10T16:05:43.252Z,20.23
2023-05-10T16:08:09.679Z,22.52
2023-05-10T16:10:39.297Z,26.35
2023-05-10T16:13:05.907Z,26.30
2023-05-10T16:15:34.641Z,25.00
2023-05-10T16:18:01.191Z,26.48
2023-05-10T16:20:27.647Z,25.50
2023-05-10T16:22:54.038Z,26.35
2023-05-10T16:25:20.437Z,25.23
2023-05-10T16:27:47.121Z,27.63
2023-05-10T16:30:16.921Z,28.38
2023-05-10T16:32:43.505Z,27.35
2023-05-10T16:35:10.041Z,27.42
2023-05-10T16:37:39.211Z,33.15
2023-05-10T16:40:06.484Z,34.83
2023-05-10T16:42:32.968Z,40.00
2023-05-10T16:45:08.613Z,41.03
2023-05-10T16:47:43.109Z,45.17
2023-05-10T16:50:10.165Z,44.15
2023-05-10T16:52:36.949Z,54.05
2023-05-10T16:55:04.435Z,48.55
2023-05-10T16:57:33.947Z,41.67
2023-05-10T17:00:00.533Z,46.92
2023-05-10T17:02:27.268Z,62.05
2023-05-10T17:04:55.149Z,53.42
2023-05-10T17:07:23.598Z,43.03
2023-05-10T17:09:51.976Z,51.83
2023-05-10T17:12:18.496Z,48.95
2023-05-10T17:14:44.916Z,46.53
2023-05-10T17:17:11.419Z,63.55
2023-05-10T17:19:38.050Z,70.60
2023-05-10T17:22:04.531Z,52.50
2023-05-10T17:24:31.104Z,49.72
2023-05-10T17:26:57.506Z,69.05
2023-05-10T17:29:24.181Z,62.35
2023-05-10T17:31:50.862Z,70.72
2023-05-10T17:34:17.543Z,63.08
2023-05-10T17:36:44.013Z,77.97
2023-05-10T17:39:10.685Z,83.07
2023-05-10T17:41:37.209Z,85.28
2023-05-10T17:44:04.814Z,78.55
2023-05-10T17:46:31.170Z,94.07
2023-05-10T17:48:57.954Z,84.47
2023-05-10T17:51:24.492Z,86.53
2023-05-10T17:53:50.887Z,90.75
2023-05-10T17:56:17.315Z,87.32
2023-05-10T17:58:45.302Z,58.78
2023-05-10T18:01:12.073Z,67.85
2023-05-10T18:03:38.580Z,71.05
2023-05-10T18:06:05.321Z,66.30
2023-05-10T18:08:33.020Z,62.67
2023-05-10T18:10:59.397Z,71.18
2023-05-10T18:13:26.344Z,77.35
2023-05-10T18:15:53.266Z,54.85
2023-05-10T18:18:19.732Z,56.80
2023-05-10T18:20:46.605Z,54.53
2023-05-10T18:23:14.259Z,50.75
2023-05-10T18:25:40.760Z,56.35
2023-05-10T18:28:08.166Z,50.78
2023-05-10T18:30:34.583Z,48.13
2023-05-10T18:33:01.124Z,52.75
2023-05-10T18:35:27.894Z,65.45
2023-05-10T18:37:54.390Z,59.40
2023-05-10T18:40:20.952Z,69.55
2023-05-10T18:42:50.001Z,99.93
2023-05-10T18:45:16.844Z,79.88
2023-05-10T18:47:43.427Z,98.97
2023-05-10T18:50:10.714Z,86.13
2023-05-10T18:52:37.334Z,79.70
2023-05-10T18:55:04.333Z,68.78
2023-05-10T18:57:30.948Z,61.90
2023-05-10T18:59:57.512Z,53.13
2023-05-10T19:02:26.462Z,54.42
2023-05-10T19:04:53.112Z,61.65
2023-05-10T19:07:19.744Z,60.85
2023-05-10T19:09:46.082Z,56.08
2023-05-10T19:12:12.498Z,66.28
2023-05-10T19:14:38.919Z,83.80
2023-05-10T19:17:05.917Z,82.43
2023-05-10T19:19:32.864Z,78.95
2023-05-10T19:21:59.384Z,100.65
2023-05-10T19:24:26.050Z,98.75
2023-05-10T19:26:52.829Z,91.38
2023-05-10T19:29:19.510Z,109.10
2023-05-10T19:31:47.098Z,106.05
2023-05-10T19:34:13.765Z,110.22
2023-05-10T19:36:40.511Z,100.97
2023-05-10T19:39:06.952Z,98.25
2023-05-10T19:41:36.049Z,96.28
2023-05-10T19:44:06.411Z,106.30
2023-05-10T19:46:33.018Z,105.25
2023-05-10T19:48:59.607Z,114.40
2023-05-10T19:51:26.402Z,117.57
2023-05-10T19:53:52.827Z,114.35
2023-05-10T19:56:19.500Z,120.38
2023-05-10T19:58:46.668Z,125.93
2023-05-10T20:01:13.197Z,120.53
2023-05-10T20:03:39.669Z,119.07
2023-05-10T20:06:06.212Z,117.20
2023-05-10T20:08:32.656Z,110.78
2023-05-10T20:11:00.567Z,114.82
2023-05-10T20:13:26.915Z,116.38
2023-05-10T20:16:00.026Z,117.30
2023-05-10T20:18:26.983Z,107.85
2023-05-10T20:20:55.011Z,114.85
2023-05-10T20:23:21.957Z,115.75
2023-05-10T20:25:48.738Z,110.35
2023-05-10T20:28:15.836Z,107.00
2023-05-10T20:30:42.248Z,105.82
2023-05-10T20:33:09.221Z,117.63
2023-05-10T20:35:35.810Z,103.70
2023-05-10T20:38:02.409Z,101.97
2023-05-10T20:40:28.794Z,92.88
2023-05-10T20:42:55.206Z,99.32
2023-05-10T20:45:21.563Z,108.38
2023-05-10T20:47:48.107Z,126.63
2023-05-10T20:50:14.695Z,115.45
2023-05-10T20:52:41.177Z,113.20
2023-05-10T20:55:07.879Z,106.60
2023-05-10T20:57:34.305Z,116.57
2023-05-10T21:00:00.748Z,114.85
2023-05-10T21:02:27.157Z,119.70
2023-05-10T21:04:55.559Z,123.93
2023-05-10T21:07:23.494Z,120.50
2023-05-10T21:09:49.907Z,120.63
2023-05-10T21:12:16.348Z,121.45
2023-05-10T21:14:44.175Z,118.10
2023-05-10T21:17:10.605Z,118.75
2023-05-10T21:19:37.008Z,128.05
2023-05-10T21:22:03.750Z,152.43
2023-05-10T21:24:30.775Z,162.23
2023-05-10T21:26:57.134Z,174.25
2023-05-10T21:29:23.453Z,177.95
2023-05-10T21:31:49.895Z,136.32
2023-05-10T21:34:17.889Z,118.88
2023-05-10T21:36:45.438Z,121.05
2023-05-10T21:39:11.920Z,128.07
2023-05-10T21:41:38.315Z,128.82
2023-05-10T21:44:05.036Z,127.38
2023-05-10T21:46:31.795Z,142.50
2023-05-10T21:48:58.132Z,146.38
2023-05-10T21:51:24.482Z,165.00
2023-05-10T21:53:50.911Z,156.95
2023-05-10T21:56:17.368Z,146.63
2023-05-10T21:58:43.771Z,177.23
2023-05-10T22:01:10.223Z,200.52
2023-05-10T22:03:36.701Z,180.63
2023-05-10T22:06:03.325Z,156.38
2023-05-10T22:08:29.788Z,131.57
2023-05-10T22:10:56.395Z,125.28
2023-05-10T22:13:22.764Z,149.30
2023-05-10T22:15:49.273Z,130.65
2023-05-10T22:18:15.685Z,149.73
2023-05-10T22:20:47.355Z,164.43
2023-05-10T22:23:13.999Z,154.70
2023-05-10T22:25:40.417Z,182.38
2023-05-10T22:28:09.089Z,176.30
2023-05-10T22:30:35.555Z,171.32
2023-05-10T22:33:01.954Z,216.48
2023-05-10T22:35:28.378Z,211.98
2023-05-10T22:37:54.949Z,169.35
2023-05-10T22:40:21.479Z,158.88
2023-05-10T22:42:47.844Z,138.45
2023-05-10T22:45:14.228Z,152.88
2023-05-10T22:47:40.693Z,142.82
2023-05-10T22:50:08.604Z,135.65
2023-05-10T22:52:35.068Z,116.90
2023-05-10T22:55:01.606Z,140.25
2023-05-10T22:57:28.108Z,135.88
2023-05-10T22:59:54.494Z,143.75
2023-05-10T23:02:21.214Z,191.73
2023-05-10T23:04:47.616Z,273.52
2023-05-10T23:07:13.993Z,305.38
2023-05-10T23:09:40.458Z,367.20
2023-05-10T23:12:06.779Z,423.80
2023-05-10T23:14:33.121Z,537.35
2023-05-10T23:16:59.438Z,519.25
2023-05-10T23:19:25.979Z,545.72
2023-05-10T23:21:52.336Z,549.47
2023-05-10T23:24:18.747Z,594.10
2023-05-10T23:26:46.325Z,619.97
2023-05-10T23:29:12.703Z,651.55
2023-05-10T23:31:45.038Z,679.63
2023-05-10T23:34:12.218Z,716.58
2023-05-10T23:36:38.920Z,739.33
2023-05-10T23:39:05.487Z,760.95
2023-05-10T23:41:31.886Z,743.78
2023-05-10T23:43:58.247Z,754.67
2023-05-10T23:46:24.645Z,761.38
2023-05-10T23:48:50.997Z,753.55
2023-05-10T23:51:17.325Z,750.58
2023-05-10T23:53:43.652Z,758.00
2023-05-10T23:56:10.063Z,757.92
2023-05-10T23:58:36.397Z,745.63
